Time;durP1;ratioP1;P1;durP2;ratioP2;P2;SDS_P1;SDS_P2;PMS_P1;PMS_P2;Temp;Humidity;BMP_temperature;BMP_pressure;BME280_temperature;BME280_humidity;BME280_pressure;Samples;Min_cycle;Max_cycle;Signal;HPM_P1;HPM_P2
2021/04/28 00:00:23;;;;;;;32.80;30.95;;;20.20;99.90;;;;;;5075853;28;20016;-64
2021/04/28 00:02:50;;;;;;;34.42;32.28;;;20.20;99.90;;;;;;5075806;28;20035;-66
2021/04/28 00:05:18;;;;;;;32.67;30.75;;;20.10;99.90;;;;;;5075753;28;20091;-65
2021/04/28 00:07:46;;;;;;;32.20;30.13;;;20.00;99.90;;;;;;5075710;28;20016;-66
2021/04/28 00:10:15;;;;;;;29.95;28.20;;;20.00;99.90;;;;;;5075580;28;20075;-65
2021/04/28 00:12:43;;;;;;;26.40;25.00;;;20.40;99.90;;;;;;5075598;28;20048;-67
2021/04/28 00:15:15;;;;;;;25.60;24.17;;;20.70;99.90;;;;;;5075478;28;20342;-63
2021/04/28 00:17:43;;;;;;;24.20;22.70;;;20.60;99.90;;;;;;5075400;28;20427;-63
2021/04/28 00:20:13;;;;;;;23.75;22.13;;;20.40;99.90;;;;;;5075393;28;20021;-67
2021/04/28 00:22:40;;;;;;;25.48;23.80;;;20.20;99.90;;;;;;5075383;28;20027;-68
2021/04/28 00:25:11;;;;;;;24.52;23.00;;;20.20;99.90;;;;;;5075473;28;20028;-67
2021/04/28 00:27:39;;;;;;;23.95;22.27;;;20.20;99.90;;;;;;5075514;28;20020;-68
2021/04/28 00:30:09;;;;;;;22.25;20.95;;;20.40;99.90;;;;;;5075328;28;20024;-69
2021/04/28 00:32:38;;;;;;;21.10;19.73;;;20.70;99.90;;;;;;5075406;28;20396;-69
2021/04/28 00:35:08;;;;;;;21.05;19.35;;;20.90;99.90;;;;;;5075343;28;20434;-66
2021/04/28 00:37:36;;;;;;;19.38;17.90;;;21.00;99.90;;;;;;5075300;28;20036;-66
2021/04/28 00:40:10;;;;;;;17.63;16.42;;;20.90;99.90;;;;;;5074836;28;20404;-67
2021/04/28 00:42:38;;;;;;;17.10;15.98;;;20.90;99.90;;;;;;5075261;28;20078;-64
2021/04/28 00:45:06;;;;;;;15.70;14.60;;;21.10;99.90;;;;;;5074949;28;20023;-64
2021/04/28 00:47:33;;;;;;;18.83;17.33;;;21.60;99.90;;;;;;5075188;28;20024;-64
2021/04/28 00:50:01;;;;;;;20.70;19.17;;;21.90;99.90;;;;;;5075064;28;20044;-65
2021/04/28 00:52:28;;;;;;;20.60;18.95;;;22.20;99.90;;;;;;5074946;28;20039;-68
2021/04/28 00:54:56;;;;;;;19.25;17.75;;;22.60;99.90;;;;;;5075042;28;20162;-68
2021/04/28 00:57:23;;;;;;;22.92;16.27;;;22.80;99.90;;;;;;5074830;28;20027;-68
2021/04/28 00:59:51;;;;;;;15.07;13.85;;;22.60;99.90;;;;;;5074063;28;20029;-66
2021/04/28 01:02:19;;;;;;;13.73;12.65;;;22.60;99.90;;;;;;5074889;28;20024;-69
2021/04/28 01:04:47;;;;;;;13.88;12.73;;;23.00;99.90;;;;;;5074848;28;20021;-69
2021/04/28 01:07:15;;;;;;;13.20;12.10;;;22.90;99.90;;;;;;5073443;28;20047;-66
2021/04/28 01:09:43;;;;;;;11.75;10.60;;;22.80;99.90;;;;;;5074507;28;20031;-66
2021/04/28 01:12:11;;;;;;;11.35;10.50;;;23.10;99.90;;;;;;5074584;28;20103;-62
2021/04/28 01:14:40;;;;;;;10.52;9.57;;;23.00;99.90;;;;;;5074551;28;20074;-63
2021/04/28 01:17:07;;;;;;;10.13;9.18;;;22.90;99.90;;;;;;5074559;28;20021;-67
2021/04/28 01:19:40;;;;;;;10.10;9.30;;;22.90;99.90;;;;;;5074260;28;20028;-68
2021/04/28 01:22:07;;;;;;;9.38;8.55;;;23.20;99.90;;;;;;5074319;28;20044;-69
2021/04/28 01:24:35;;;;;;;10.65;9.48;;;22.80;99.90;;;;;;5074333;28;20019;-67
2021/04/28 01:27:10;;;;;;;9.77;8.73;;;23.00;99.90;;;;;;5074208;28;20024;-67
2021/04/28 01:29:38;;;;;;;15.77;10.15;;;22.60;99.90;;;;;;5074530;28;20396;-68
2021/04/28 01:32:07;;;;;;;10.43;8.00;;;22.60;99.90;;;;;;5074123;28;20020;-60
2021/04/28 01:34:37;;;;;;;8.80;8.00;;;22.40;99.90;;;;;;5073971;28;20420;-62
2021/04/28 01:37:05;;;;;;;11.80;7.78;;;22.10;99.90;;;;;;5074104;28;20181;-62
2021/04/28 01:39:34;;;;;;;13.18;7.47;;;22.00;99.90;;;;;;5073787;28;20037;-64
2021/04/28 01:42:01;;;;;;;7.80;7.10;;;22.20;99.90;;;;;;5073814;28;20096;-66
2021/04/28 01:44:29;;;;;;;9.23;7.95;;;21.90;99.90;;;;;;5073803;28;20017;-64
2021/04/28 01:46:57;;;;;;;9.20;8.40;;;21.50;99.90;;;;;;5073814;28;20082;-63
2021/04/28 01:49:25;;;;;;;9.32;8.52;;;21.30;99.90;;;;;;5072387;28;20075;-63
2021/04/28 01:51:55;;;;;;;9.73;8.93;;;21.20;99.90;;;;;;5073752;28;20389;-63
2021/04/28 01:54:23;;;;;;;10.05;9.18;;;21.10;99.90;;;;;;5073901;28;20528;-63
2021/04/28 01:56:52;;;;;;;10.00;9.40;;;21.20;99.90;;;;;;5073672;28;20035;-65
2021/04/28 01:59:22;;;;;;;9.27;8.77;;;21.10;99.90;;;;;;5073848;28;20035;-64
2021/04/28 02:01:54;;;;;;;10.02;9.23;;;21.10;99.90;;;;;;5073499;28;20017;-63
2021/04/28 02:04:22;;;;;;;10.40;9.10;;;21.20;99.90;;;;;;5073454;28;20034;-64
2021/04/28 02:06:50;;;;;;;8.48;7.88;;;21.30;99.90;;;;;;5073506;28;20021;-63
2021/04/28 02:09:18;;;;;;;9.50;8.50;;;21.30;99.90;;;;;;5073239;28;20021;-67
2021/04/28 02:11:46;;;;;;;12.15;8.77;;;21.20;99.90;;;;;;5072345;28;20392;-69
2021/04/28 02:14:20;;;;;;;13.13;9.20;;;21.20;99.90;;;;;;5073377;28;20024;-64
2021/04/28 02:16:49;;;;;;;8.30;7.70;;;21.60;99.90;;;;;;5073408;28;20025;-67
2021/04/28 02:19:18;;;;;;;8.82;8.13;;;21.80;99.90;;;;;;5073104;28;20020;-66
2021/04/28 02:21:51;;;;;;;13.18;8.38;;;21.90;99.90;;;;;;5073178;28;20013;-66
2021/04/28 02:24:18;;;;;;;9.65;8.18;;;21.90;99.90;;;;;;5073246;28;20016;-67
2021/04/28 02:26:48;;;;;;;9.88;8.20;;;21.70;99.90;;;;;;5073206;28;20042;-69
2021/04/28 02:29:16;;;;;;;8.73;7.80;;;21.60;99.90;;;;;;5073129;28;20035;-68
2021/04/28 02:31:43;;;;;;;8.90;7.60;;;21.80;99.90;;;;;;5073132;28;20039;-65
2021/04/28 02:34:10;;;;;;;8.23;7.53;;;22.20;99.90;;;;;;5073331;28;20024;-63
2021/04/28 02:36:43;;;;;;;8.82;7.10;;;22.40;99.90;;;;;;5072980;28;20115;-64
2021/04/28 02:39:32;;;;;;;8.32;7.38;;;22.20;99.90;;;;;;5072771;28;20115;-64
2021/04/28 02:42:00;;;;;;;7.40;6.95;;;22.40;99.90;;;;;;5073026;28;20025;-63
2021/04/28 02:44:31;;;;;;;7.65;7.00;;;22.30;99.90;;;;;;5072907;28;20085;-64
2021/04/28 02:47:00;;;;;;;10.57;7.95;;;21.90;99.90;;;;;;5073022;28;20032;-64
2021/04/28 02:49:28;;;;;;;7.80;7.10;;;21.80;99.90;;;;;;5072836;28;20482;-64
2021/04/28 02:51:56;;;;;;;7.45;6.85;;;22.00;99.90;;;;;;5072600;28;20028;-64
2021/04/28 02:54:24;;;;;;;7.32;6.60;;;21.90;99.90;;;;;;5072638;28;20032;-65
2021/04/28 02:56:53;;;;;;;12.45;7.68;;;21.90;99.90;;;;;;5072795;28;20032;-65
2021/04/28 02:59:22;;;;;;;7.88;7.13;;;21.70;99.90;;;;;;5072483;28;20110;-64
2021/04/28 03:01:51;;;;;;;7.05;6.35;;;21.80;99.90;;;;;;5072570;28;20024;-64
2021/04/28 03:04:19;;;;;;;7.35;6.75;;;22.00;99.90;;;;;;5072543;28;20032;-64
2021/04/28 03:06:46;;;;;;;7.18;6.68;;;21.80;99.90;;;;;;5072905;28;20028;-64
2021/04/28 03:09:16;;;;;;;6.70;6.20;;;21.80;99.90;;;;;;5072724;28;20099;-64
2021/04/28 03:11:45;;;;;;;7.60;6.90;;;21.60;99.90;;;;;;5072624;28;20093;-69
2021/04/28 03:14:12;;;;;;;7.22;6.53;;;21.50;99.90;;;;;;5072589;28;20043;-66
2021/04/28 03:16:41;;;;;;;7.88;7.28;;;21.30;99.90;;;;;;5072529;28;20035;-67
2021/04/28 03:19:09;;;;;;;7.50;7.00;;;21.40;99.90;;;;;;5072522;28;20029;-63
2021/04/28 03:21:40;;;;;;;10.25;7.60;;;21.60;99.90;;;;;;5072663;28;20028;-63
2021/04/28 03:24:09;;;;;;;7.70;7.10;;;21.60;99.90;;;;;;5075152;28;20454;-66
2021/04/28 03:26:37;;;;;;;7.90;7.15;;;22.00;99.90;;;;;;5076470;28;20036;-64
2021/04/28 03:29:05;;;;;;;18.73;8.25;;;22.00;99.90;;;;;;5076448;28;20047;-63
2021/04/28 03:31:33;;;;;;;10.57;7.95;;;22.10;99.90;;;;;;5076341;28;20016;-63
2021/04/28 03:34:00;;;;;;;7.47;6.70;;;22.00;99.90;;;;;;5076410;28;20029;-64
2021/04/28 03:36:28;;;;;;;11.38;7.18;;;22.00;99.90;;;;;;5076380;28;20493;-64
2021/04/28 03:38:55;;;;;;;9.80;6.88;;;22.10;99.90;;;;;;5076067;28;20074;-62
2021/04/28 03:41:24;;;;;;;8.32;7.45;;;22.20;99.90;;;;;;5076198;28;20104;-64
2021/04/28 03:43:52;;;;;;;17.08;8.00;;;22.40;99.90;;;;;;5076055;28;20107;-64
2021/04/28 03:46:20;;;;;;;8.00;6.68;;;22.60;99.90;;;;;;5076051;28;20103;-64
2021/04/28 03:48:48;;;;;;;7.40;6.78;;;22.70;99.90;;;;;;5076195;28;20074;-63
2021/04/28 03:51:16;;;;;;;8.57;6.55;;;22.60;99.90;;;;;;5076029;28;20473;-64
2021/04/28 03:53:43;;;;;;;7.47;6.75;;;22.50;99.90;;;;;;5075818;28;20044;-65
2021/04/28 03:56:10;;;;;;;7.10;6.50;;;22.00;99.90;;;;;;5076025;28;20028;-65
2021/04/28 03:58:38;;;;;;;7.28;6.78;;;22.00;99.90;;;;;;5075806;28;20020;-64
2021/04/28 04:01:05;;;;;;;7.80;6.97;;;21.80;99.90;;;;;;5076182;28;20028;-65
2021/04/28 04:03:32;;;;;;;12.45;7.63;;;21.70;99.90;;;;;;5075739;28;20044;-64
2021/04/28 04:06:00;;;;;;;7.22;6.63;;;21.70;99.90;;;;;;5075770;28;20024;-65
2021/04/28 04:08:27;;;;;;;8.00;7.20;;;21.90;99.90;;;;;;5075912;28;20028;-65
2021/04/28 04:10:54;;;;;;;8.85;7.43;;;22.00;99.90;;;;;;5075593;28;20147;-65
2021/04/28 04:13:22;;;;;;;6.68;6.18;;;22.50;99.90;;;;;;5075668;28;20055;-64
2021/04/28 04:15:49;;;;;;;6.88;6.38;;;22.50;99.90;;;;;;5075627;28;20027;-64
2021/04/28 04:18:16;;;;;;;8.07;7.43;;;22.40;99.90;;;;;;5075417;28;20032;-65
2021/04/28 04:20:44;;;;;;;7.30;6.68;;;22.10;99.90;;;;;;5075496;28;20017;-65
2021/04/28 04:23:11;;;;;;;7.03;6.45;;;21.80;99.90;;;;;;5075706;28;20393;-67
2021/04/28 04:25:38;;;;;;;9.43;6.60;;;21.60;99.90;;;;;;5075443;28;20044;-65
2021/04/28 04:28:06;;;;;;;7.15;6.57;;;21.40;99.90;;;;;;5075209;28;20020;-64
2021/04/28 04:30:33;;;;;;;8.10;7.03;;;21.10;99.90;;;;;;5075198;28;20028;-66
2021/04/28 04:33:01;;;;;;;7.47;6.88;;;20.90;99.90;;;;;;5075253;28;20491;-65
2021/04/28 04:35:28;;;;;;;17.48;7.57;;;20.90;99.90;;;;;;5073970;28;20024;-67
2021/04/28 04:37:55;;;;;;;7.18;6.68;;;20.80;99.90;;;;;;5073747;28;20118;-67
2021/04/28 04:40:23;;;;;;;7.55;6.72;;;20.80;99.90;;;;;;5074886;28;20037;-66
2021/04/28 04:42:50;;;;;;;7.57;6.82;;;20.60;99.90;;;;;;5075014;28;20362;-65
2021/04/28 04:45:17;;;;;;;9.55;7.00;;;20.60;99.90;;;;;;5075320;28;20030;-65
2021/04/28 04:47:45;;;;;;;7.35;6.65;;;20.70;99.90;;;;;;5075079;28;20016;-68
2021/04/28 04:50:12;;;;;;;7.35;6.72;;;20.80;99.90;;;;;;5074875;28;20051;-67
2021/04/28 04:52:42;;;;;;;7.97;7.28;;;21.00;99.90;;;;;;5074906;28;20047;-68
2021/04/28 04:55:10;;;;;;;15.50;8.75;;;21.10;99.90;;;;;;5074724;28;20032;-63
2021/04/28 04:57:38;;;;;;;12.18;8.48;;;21.30;99.90;;;;;;5074746;28;20104;-66
2021/04/28 05:00:06;;;;;;;20.40;8.98;;;21.40;99.90;;;;;;5074760;28;20028;-62
2021/04/28 05:02:34;;;;;;;6.68;5.90;;;21.50;99.90;;;;;;5074746;28;20017;-67
2021/04/28 05:05:01;;;;;;;7.07;6.47;;;21.50;99.90;;;;;;5074473;28;20113;-66
2021/04/28 05:07:28;;;;;;;6.50;5.90;;;21.40;99.90;;;;;;5074605;28;20024;-66
2021/04/28 05:09:56;;;;;;;6.55;5.95;;;21.30;99.90;;;;;;5074671;28;20048;-68
2021/04/28 05:12:23;;;;;;;6.72;6.32;;;21.10;99.90;;;;;;5074520;28;20380;-68
2021/04/28 05:14:50;;;;;;;7.65;6.95;;;21.00;99.90;;;;;;5074354;28;20017;-68
2021/04/28 05:17:17;;;;;;;9.93;7.88;;;20.90;99.90;;;;;;5074390;28;20330;-67
2021/04/28 05:19:45;;;;;;;7.25;6.72;;;20.50;99.90;;;;;;5074312;28;20023;-67
2021/04/28 05:22:12;;;;;;;28.05;10.68;;;20.40;99.90;;;;;;5074238;28;20365;-69
2021/04/28 05:24:39;;;;;;;14.63;7.28;;;20.40;99.90;;;;;;5074247;28;20017;-68
2021/04/28 05:27:07;;;;;;;7.78;6.93;;;20.30;99.90;;;;;;5074198;28;20023;-68
2021/04/28 05:29:34;;;;;;;20.15;9.85;;;20.30;99.90;;;;;;5072775;28;20028;-69
2021/04/28 05:32:01;;;;;;;8.88;8.15;;;20.20;99.90;;;;;;5074198;28;20090;-71
2021/04/28 05:34:29;;;;;;;20.33;10.40;;;20.20;99.90;;;;;;5074291;28;20433;-68
2021/04/28 05:36:56;;;;;;;15.75;9.27;;;20.20;99.90;;;;;;5074051;28;20031;-70
2021/04/28 05:39:23;;;;;;;17.33;9.70;;;20.10;99.90;;;;;;5073868;28;20082;-69
2021/04/28 05:41:52;;;;;;;36.35;13.30;;;20.20;99.90;;;;;;5074010;28;20485;-76
2021/04/28 05:44:20;;;;;;;41.08;14.45;;;20.10;99.90;;;;;;5073993;28;20067;-67
2021/04/28 05:46:48;;;;;;;12.13;8.45;;;20.00;99.90;;;;;;5073534;28;20074;-68
2021/04/28 05:49:15;;;;;;;48.88;14.23;;;20.00;99.90;;;;;;5073660;28;20031;-69
2021/04/28 05:51:43;;;;;;;21.33;10.70;;;20.00;99.90;;;;;;5072341;28;20035;-69
2021/04/28 05:54:10;;;;;;;17.55;8.70;;;20.00;99.90;;;;;;5073624;28;20477;-68
2021/04/28 05:56:39;;;;;;;8.32;7.50;;;20.00;99.90;;;;;;5073911;28;20016;-69
2021/04/28 05:59:07;;;;;;;8.85;8.10;;;19.90;99.90;;;;;;5073519;28;20023;-72
2021/04/28 06:01:35;;;;;;;8.00;7.28;;;19.80;99.90;;;;;;5073674;28;20062;-71
2021/04/28 06:04:02;;;;;;;7.63;7.13;;;19.80;99.90;;;;;;5073489;28;20017;-70
2021/04/28 06:06:29;;;;;;;8.38;7.72;;;19.70;99.90;;;;;;5073525;28;20024;-70
2021/04/28 06:08:57;;;;;;;8.52;7.43;;;19.70;99.90;;;;;;5073470;28;20016;-69
2021/04/28 06:11:24;;;;;;;8.98;8.27;;;19.60;99.90;;;;;;5073339;28;20021;-69
2021/04/28 06:13:52;;;;;;;8.20;7.70;;;19.60;99.90;;;;;;5073363;28;20032;-68
2021/04/28 06:16:19;;;;;;;9.20;8.60;;;19.60;99.90;;;;;;5073459;28;20033;-69
2021/04/28 06:18:47;;;;;;;8.75;8.18;;;19.60;99.90;;;;;;5073181;28;20025;-69
2021/04/28 06:21:14;;;;;;;8.82;8.23;;;19.60;99.90;;;;;;5073313;28;20519;-69
2021/04/28 06:23:41;;;;;;;9.65;8.77;;;19.60;99.90;;;;;;5073176;28;20029;-68
2021/04/28 06:26:09;;;;;;;9.10;8.50;;;19.50;99.90;;;;;;5072095;28;20024;-68
2021/04/28 06:28:36;;;;;;;9.25;8.65;;;19.50;99.90;;;;;;5073175;28;20028;-67
2021/04/28 06:31:04;;;;;;;9.18;8.50;;;19.40;99.90;;;;;;5073345;28;20533;-68
2021/04/28 06:33:31;;;;;;;9.23;8.63;;;19.30;99.90;;;;;;5073054;28;20059;-68
2021/04/28 06:35:59;;;;;;;9.90;9.18;;;19.30;99.90;;;;;;5073075;28;20035;-69
2021/04/28 06:38:26;;;;;;;9.77;9.07;;;19.30;99.90;;;;;;5072950;28;20515;-68
2021/04/28 06:40:53;;;;;;;9.82;8.90;;;19.20;99.90;;;;;;5073004;28;20044;-69
2021/04/28 06:43:21;;;;;;;9.05;8.45;;;19.10;99.90;;;;;;5072942;28;20420;-67
2021/04/28 06:45:48;;;;;;;10.13;9.48;;;19.20;99.90;;;;;;5072913;28;20432;-69
2021/04/28 06:48:15;;;;;;;9.93;9.18;;;19.10;99.90;;;;;;5072897;28;20104;-69
2021/04/28 06:50:43;;;;;;;9.32;8.65;;;19.10;99.90;;;;;;5072877;28;20016;-69
2021/04/28 06:53:10;;;;;;;9.38;8.68;;;19.10;99.90;;;;;;5073021;28;20482;-66
2021/04/28 06:55:37;;;;;;;9.80;9.10;;;19.00;99.90;;;;;;5072825;28;20040;-68
2021/04/28 06:58:05;;;;;;;9.75;8.85;;;18.90;99.90;;;;;;5072223;28;20488;-69
2021/04/28 07:00:32;;;;;;;10.73;10.13;;;18.80;99.90;;;;;;5072719;28;20028;-69
2021/04/28 07:03:00;;;;;;;11.20;10.40;;;18.70;99.90;;;;;;5072709;28;20020;-68
2021/04/28 07:05:27;;;;;;;11.13;10.30;;;18.60;99.90;;;;;;5072702;28;20032;-67
2021/04/28 07:07:58;;;;;;;10.85;10.00;;;18.60;99.90;;;;;;5072626;28;20124;-68
2021/04/28 07:10:26;;;;;;;12.60;11.38;;;18.40;99.90;;;;;;5072800;28;20485;-68
2021/04/28 07:12:53;;;;;;;12.43;11.70;;;18.40;99.90;;;;;;5072757;28;20431;-69
2021/04/28 07:15:21;;;;;;;12.23;11.32;;;18.30;99.90;;;;;;5072795;28;20126;-68
2021/04/28 07:17:50;;;;;;;12.40;11.60;;;18.20;99.90;;;;;;5072590;28;20400;-68
2021/04/28 07:20:18;;;;;;;12.13;11.30;;;18.10;99.90;;;;;;5072584;28;20181;-69
2021/04/28 07:22:46;;;;;;;12.35;11.55;;;18.10;99.90;;;;;;5072463;28;20028;-67
2021/04/28 07:25:13;;;;;;;12.75;11.95;;;18.00;99.90;;;;;;5072677;28;20032;-68
2021/04/28 07:27:43;;;;;;;13.85;12.95;;;18.00;99.90;;;;;;5072512;28;20016;-68
2021/04/28 07:30:13;;;;;;;13.00;12.25;;;17.90;99.90;;;;;;5072378;28;20060;-68
2021/04/28 07:32:41;;;;;;;14.20;13.40;;;17.80;99.90;;;;;;5072517;28;20081;-69
2021/04/28 07:35:10;;;;;;;14.50;13.45;;;17.80;99.90;;;;;;5072401;28;20098;-68
2021/04/28 07:37:37;;;;;;;13.82;13.02;;;17.70;99.90;;;;;;5072260;28;20017;-70
2021/04/28 07:40:07;;;;;;;14.15;13.05;;;17.70;99.90;;;;;;5070977;28;20051;-69
2021/04/28 07:42:34;;;;;;;14.52;13.73;;;17.60;99.90;;;;;;5072216;28;20027;-70
2021/04/28 07:45:01;;;;;;;14.85;14.00;;;17.60;99.90;;;;;;5072369;28;20044;-68
2021/04/28 07:47:28;;;;;;;14.80;13.90;;;17.50;99.90;;;;;;5072215;28;20028;-69
2021/04/28 07:49:56;;;;;;;14.63;13.82;;;17.50;99.90;;;;;;5072126;28;20500;-68
2021/04/28 07:52:23;;;;;;;15.95;14.90;;;17.40;99.90;;;;;;5072126;28;20139;-68
2021/04/28 07:54:51;;;;;;;15.10;14.30;;;17.30;99.90;;;;;;5072134;28;20103;-69
2021/04/28 07:57:18;;;;;;;16.33;15.23;;;17.30;99.90;;;;;;5072173;28;20059;-68
2021/04/28 07:59:46;;;;;;;15.88;14.90;;;17.30;99.90;;;;;;5072196;28;20020;-70
2021/04/28 08:02:13;;;;;;;16.98;15.75;;;17.30;99.90;;;;;;5072095;28;20032;-71
2021/04/28 08:04:41;;;;;;;17.42;16.23;;;17.20;99.90;;;;;;5072190;28;20366;-70
2021/04/28 08:07:09;;;;;;;17.73;16.83;;;17.20;99.90;;;;;;5072073;28;20024;-71
2021/04/28 08:09:36;;;;;;;20.38;19.08;;;17.10;99.90;;;;;;5073989;28;20020;-72
2021/04/28 08:12:05;;;;;;;20.27;19.10;;;17.30;99.90;;;;;;5075675;28;20081;-72
2021/04/28 08:14:33;;;;;;;20.15;19.05;;;17.20;99.90;;;;;;5075585;28;20029;-71
2021/04/28 08:17:01;;;;;;;21.23;19.92;;;17.10;99.90;;;;;;5075648;28;20024;-70
2021/04/28 08:19:28;;;;;;;21.20;20.10;;;17.10;99.90;;;;;;5075571;28;20477;-70
2021/04/28 08:21:56;;;;;;;21.17;19.88;;;17.10;99.90;;;;;;5075585;28;20400;-70
2021/04/28 08:24:24;;;;;;;20.83;19.75;;;17.10;99.90;;;;;;5075495;28;20013;-69
2021/04/28 08:26:52;;;;;;;21.95;20.60;;;17.00;99.90;;;;;;5075444;28;20036;-68
2021/04/28 08:29:19;;;;;;;21.88;20.67;;;17.10;99.90;;;;;;5075493;28;20082;-69
2021/04/28 08:31:47;;;;;;;21.98;20.55;;;17.00;99.90;;;;;;5075744;28;20035;-69
2021/04/28 08:34:14;;;;;;;21.88;20.50;;;17.00;99.90;;;;;;5075350;28;20055;-69
2021/04/28 08:36:42;;;;;;;22.08;20.88;;;16.90;99.90;;;;;;5075258;28;20493;-68
2021/04/28 08:39:09;;;;;;;22.27;21.08;;;16.90;99.90;;;;;;5073675;28;20461;-70
2021/04/28 08:41:38;;;;;;;22.10;20.90;;;16.80;99.90;;;;;;5075128;28;20095;-69
2021/04/28 08:44:09;;;;;;;22.35;21.02;;;16.80;99.90;;;;;;5075342;28;20055;-69
2021/04/28 08:46:37;;;;;;;23.20;21.90;;;16.80;99.90;;;;;;5074913;28;20017;-69
2021/04/28 08:49:09;;;;;;;23.15;21.85;;;16.70;99.90;;;;;;5074838;28;20560;-69
2021/04/28 08:51:39;;;;;;;23.65;22.35;;;16.70;99.90;;;;;;5074778;28;20028;-69
2021/04/28 08:54:06;;;;;;;;;;;16.70;99.90;;;;;;5075289;28;20073;-69
2021/04/28 08:56:35;;;;;;;25.20;23.65;;;16.70;99.90;;;;;;5074978;28;19908;-70
2021/04/28 08:59:06;;;;;;;25.63;23.92;;;16.70;99.90;;;;;;5074750;28;20024;-70
2021/04/28 09:01:42;;;;;;;26.38;24.77;;;16.60;99.90;;;;;;5074890;28;20020;-70
2021/04/28 09:04:24;;;;;;;26.13;24.73;;;16.60;99.90;;;;;;5074880;28;20389;-70
2021/04/28 09:06:52;;;;;;;27.13;25.23;;;16.50;99.90;;;;;;5074801;28;20023;-69
2021/04/28 09:09:20;;;;;;;27.80;26.05;;;16.50;99.90;;;;;;5074732;28;20024;-70
2021/04/28 09:11:50;;;;;;;27.90;26.30;;;16.40;99.90;;;;;;5074687;28;20031;-70
2021/04/28 09:14:24;;;;;;;27.87;26.27;;;16.40;99.90;;;;;;5074664;28;20489;-70
2021/04/28 09:17:02;;;;;;;29.45;27.55;;;16.40;99.90;;;;;;5073472;28;20028;-70
2021/04/28 09:19:40;;;;;;;29.55;27.70;;;16.30;99.90;;;;;;5074367;28;20029;-71
2021/04/28 09:22:15;;;;;;;29.65;27.48;;;16.30;99.90;;;;;;5073802;28;20012;-69
2021/04/28 09:24:55;;;;;;;29.05;27.33;;;16.30;99.90;;;;;;5074290;28;20035;-70
2021/04/28 09:27:34;;;;;;;30.13;27.95;;;16.30;99.90;;;;;;5074393;28;20028;-70
2021/04/28 09:30:02;;;;;;;30.67;28.73;;;16.20;99.90;;;;;;5074161;28;20025;-70
2021/04/28 09:32:34;;;;;;;30.17;28.10;;;16.20;99.90;;;;;;5074346;28;20032;-69
2021/04/28 09:35:23;;;;;;;30.00;28.17;;;16.10;99.90;;;;;;5074162;28;20021;-70
2021/04/28 09:37:58;;;;;;;30.90;28.83;;;16.10;99.90;;;;;;5074117;28;20031;-70
2021/04/28 09:40:46;;;;;;;31.67;29.65;;;16.00;99.90;;;;;;5073930;28;20072;-70
2021/04/28 09:43:15;;;;;;;31.98;29.83;;;16.00;99.90;;;;;;5074052;28;20020;-69
2021/04/28 09:45:51;;;;;;;32.45;30.35;;;16.00;99.90;;;;;;5072753;28;20104;-68
2021/04/28 09:48:25;;;;;;;33.47;31.15;;;16.00;99.90;;;;;;5074108;28;20020;-70
2021/04/28 09:51:10;;;;;;;33.20;31.17;;;16.00;99.90;;;;;;5073937;28;20028;-68
2021/04/28 09:53:37;;;;;;;33.35;31.25;;;15.90;99.90;;;;;;5073740;28;20499;-69
2021/04/28 09:56:17;;;;;;;33.65;31.63;;;15.90;99.90;;;;;;5073993;28;20389;-70
2021/04/28 09:58:54;;;;;;;33.75;31.75;;;15.80;99.90;;;;;;5073722;28;20488;-68
2021/04/28 10:01:37;;;;;;;34.60;32.40;;;15.80;99.90;;;;;;5073633;28;20029;-69
2021/04/28 10:04:09;;;;;;;35.22;32.88;;;15.80;99.90;;;;;;5073505;28;20092;-68
2021/04/28 10:06:47;;;;;;;34.70;32.60;;;15.70;99.90;;;;;;5072337;28;20032;-68
2021/04/28 10:09:36;;;;;;;35.58;33.22;;;15.70;99.90;;;;;;5073500;28;20021;-70
2021/04/28 10:12:07;;;;;;;35.10;33.00;;;15.60;99.90;;;;;;5073457;28;20528;-68
2021/04/28 10:14:37;;;;;;;36.22;33.88;;;15.60;99.90;;;;;;5073474;28;20028;-68
2021/04/28 10:17:06;;;;;;;35.47;33.17;;;15.60;99.90;;;;;;5073368;28;20388;-70
2021/04/28 10:19:35;;;;;;;36.25;34.00;;;15.50;99.90;;;;;;5073285;28;20031;-70
2021/04/28 10:22:11;;;;;;;37.08;34.67;;;15.50;99.90;;;;;;5073179;28;20430;-69
2021/04/28 10:24:43;;;;;;;37.42;34.80;;;15.40;99.90;;;;;;5073347;28;20024;-69
2021/04/28 10:27:16;;;;;;;38.38;35.88;;;15.40;99.90;;;;;;5073157;28;20103;-69
2021/04/28 10:29:44;;;;;;;38.85;36.17;;;15.40;99.90;;;;;;5073104;28;20416;-69
2021/04/28 10:32:14;;;;;;;38.60;36.17;;;15.40;99.90;;;;;;5072544;28;20028;-68
2021/04/28 10:34:53;;;;;;;37.80;35.40;;;15.30;99.90;;;;;;5073339;28;20021;-69
2021/04/28 10:37:24;;;;;;;39.50;37.00;;;15.30;99.90;;;;;;5072983;28;20096;-69
2021/04/28 10:39:50;;;;;;;;;;;15.30;99.90;;;;;;5073182;28;20049;-69
2021/04/28 10:42:31;;;;;;;40.25;37.63;;;15.30;99.90;;;;;;5072935;28;19905;-70
2021/04/28 10:44:59;;;;;;;40.83;37.88;;;15.20;99.90;;;;;;5073287;28;20039;-71
2021/04/28 10:47:34;;;;;;;40.58;37.97;;;15.20;99.90;;;;;;5072955;28;20017;-70
2021/04/28 10:50:18;;;;;;;41.60;38.58;;;15.20;99.90;;;;;;5072924;28;20392;-70
2021/04/28 10:52:53;;;;;;;41.60;38.83;;;15.20;99.90;;;;;;5073051;28;20021;-73
2021/04/28 10:55:42;;;;;;;42.53;39.65;;;15.20;99.90;;;;;;5073004;28;20027;-72
2021/04/28 10:58:37;;;;;;;42.33;39.55;;;15.10;99.90;;;;;;5072826;28;20530;-72
2021/04/28 11:01:07;;;;;;;43.05;39.92;;;15.10;99.90;;;;;;5070720;28;20025;-72
2021/04/28 11:03:43;;;;;;;42.20;39.25;;;15.20;99.90;;;;;;5072791;28;20384;-72
2021/04/28 11:06:20;;;;;;;41.88;38.97;;;15.10;99.90;;;;;;5072895;28;20385;-73
2021/04/28 11:09:00;;;;;;;40.72;38.03;;;15.10;99.90;;;;;;5072723;28;20476;-73
2021/04/28 11:11:34;;;;;;;41.60;38.88;;;15.10;99.90;;;;;;5072806;28;20095;-72
2021/04/28 11:14:11;;;;;;;41.38;38.58;;;15.10;99.90;;;;;;5072691;28;20480;-72
2021/04/28 11:16:43;;;;;;;42.20;39.47;;;15.10;99.90;;;;;;5072683;28;20020;-73
2021/04/28 11:19:31;;;;;;;41.67;38.88;;;15.10;99.90;;;;;;5072676;28;20016;-71
2021/04/28 11:22:21;;;;;;;41.70;38.80;;;15.10;99.90;;;;;;5072704;28;20017;-71
2021/04/28 11:25:03;;;;;;;42.20;39.33;;;15.00;99.90;;;;;;5072691;28;20031;-71
2021/04/28 11:27:59;;;;;;;41.80;39.05;;;15.00;99.90;;;;;;5072874;28;20032;-72
2021/04/28 11:30:39;;;;;;;42.90;39.88;;;15.00;99.90;;;;;;5072617;28;20021;-71
2021/04/28 11:33:06;;;;;;;43.40;40.30;;;14.90;99.90;;;;;;5072556;28;20092;-71
2021/04/28 11:35:34;;;;;;;43.80;40.55;;;14.90;99.90;;;;;;5072435;28;20025;-72
2021/04/28 11:38:17;;;;;;;43.65;40.72;;;14.90;99.90;;;;;;5072301;28;20107;-72
2021/04/28 11:41:06;;;;;;;45.35;42.10;;;14.90;99.90;;;;;;5072375;28;20127;-73
2021/04/28 11:43:57;;;;;;;45.05;42.05;;;14.80;99.90;;;;;;5072605;28;20019;-72
2021/04/28 11:46:26;;;;;;;46.92;43.72;;;14.80;99.90;;;;;;5076377;28;20048;-71
2021/04/28 11:48:58;;;;;;;47.72;44.50;;;14.80;99.90;;;;;;5076121;28;20033;-71
2021/04/28 11:51:31;;;;;;;44.70;41.95;;;14.80;99.90;;;;;;5074929;28;20027;-71
2021/04/28 11:54:04;;;;;;;46.63;43.58;;;14.70;99.90;;;;;;5076223;28;20028;-72
2021/04/28 11:56:45;;;;;;;49.22;46.22;;;14.60;99.90;;;;;;5076168;28;20029;-71
2021/04/28 11:59:39;;;;;;;52.05;48.70;;;14.60;99.90;;;;;;5076087;28;20028;-70
2021/04/28 12:02:11;;;;;;;52.25;49.25;;;14.60;99.90;;;;;;5073827;28;20033;-72
2021/04/28 12:04:45;;;;;;;49.05;45.92;;;14.60;99.90;;;;;;5075935;28;20020;-71
2021/04/28 12:07:20;;;;;;;49.90;46.65;;;14.60;99.90;;;;;;5076020;28;20027;-72
2021/04/28 12:09:49;;;;;;;52.15;48.55;;;14.60;99.90;;;;;;5076068;28;20028;-72
2021/04/28 12:12:30;;;;;;;52.90;49.53;;;14.60;99.90;;;;;;5076110;28;20020;-71
2021/04/28 12:15:06;;;;;;;51.53;48.28;;;14.60;99.90;;;;;;5075856;28;20021;-71
2021/04/28 12:17:37;;;;;;;52.75;49.55;;;14.50;99.90;;;;;;5075791;28;20032;-70
2021/04/28 12:20:07;;;;;;;52.80;49.50;;;14.50;99.90;;;;;;5075718;28;20036;-69
2021/04/28 12:22:35;;;;;;;52.05;48.65;;;14.50;99.90;;;;;;5075747;28;20032;-70
2021/04/28 12:25:05;;;;;;;54.13;50.83;;;14.50;99.90;;;;;;5075628;28;20052;-70
2021/04/28 12:27:35;;;;;;;52.70;49.33;;;14.50;99.90;;;;;;5075635;28;20020;-70
2021/04/28 12:30:05;;;;;;;51.65;48.55;;;14.50;99.90;;;;;;5074229;28;20063;-73
2021/04/28 12:32:37;;;;;;;52.85;49.60;;;14.40;99.90;;;;;;5075598;28;20025;-71
2021/04/28 12:35:13;;;;;;;52.35;49.15;;;14.40;99.90;;;;;;5075622;28;20035;-73
2021/04/28 12:37:42;;;;;;;53.83;50.25;;;14.40;99.90;;;;;;5075595;28;20020;-74
2021/04/28 12:40:11;;;;;;;52.90;49.60;;;14.50;99.90;;;;;;5075250;28;20041;-71
2021/04/28 12:42:43;;;;;;;53.42;50.13;;;14.40;99.90;;;;;;5075213;28;20024;-71
2021/04/28 12:45:14;;;;;;;54.35;50.85;;;14.40;99.90;;;;;;5075205;28;20424;-71
2021/04/28 12:47:42;;;;;;;53.42;50.03;;;14.30;99.90;;;;;;5075200;28;20144;-71
2021/04/28 12:50:13;;;;;;;53.58;50.17;;;14.40;99.90;;;;;;5075193;28;20077;-71